Terminal Aerodrome Forecast
Issued by NWS

Home | Current Version | Previous Version | Text Only | Print | Product List | Glossary Off
Versions: 1 2 3 4 5 6 7 8 9 10 11 12 13 14 15 16 17

000
FTUS41 KCLE 241100
TAFFDY
TAF
KFDY 241131Z 2412/2512 04006KT P6SM SCT250
     FM242200 07008KT P6SM BKN100
     FM250300 09008KT P6SM OVC040
     FM250700 13015G30KT 4SM -RA OVC025=

USA.gov is the U.S. government's official web portal to all federal, state and local government web resources and services.